createdAt,value
2018-01-06T00:01:43.834Z,2.50
2018-01-06T00:04:12.145Z,2.20
2018-01-06T00:06:39.658Z,2.50
2018-01-06T00:09:07.254Z,2.20
2018-01-06T00:11:34.752Z,1.97
2018-01-06T00:14:02.271Z,1.90
2018-01-06T00:16:29.804Z,2.23
2018-01-06T00:18:58.076Z,2.03
2018-01-06T00:21:26.501Z,1.73
2018-01-06T00:23:54.051Z,1.63
2018-01-06T00:26:21.577Z,2.30
2018-01-06T00:28:49.108Z,2.13
2018-01-06T00:31:16.631Z,1.90
2018-01-06T00:33:44.170Z,2.07
2018-01-06T00:36:11.826Z,1.70
2018-01-06T00:38:39.360Z,2.10
2018-01-06T00:41:06.912Z,1.83
2018-01-06T00:43:34.417Z,1.53
2018-01-06T00:46:01.919Z,1.60
2018-01-06T00:48:29.466Z,1.40
2018-01-06T00:50:56.961Z,1.80
2018-01-06T00:53:25.254Z,1.50
2018-01-06T00:55:52.792Z,1.43
2018-01-06T00:58:21.063Z,1.60
2018-01-06T01:00:48.615Z,1.80
2018-01-06T01:03:16.123Z,1.80
2018-01-06T01:05:43.645Z,2.13
2018-01-06T01:08:11.916Z,1.70
2018-01-06T01:10:40.209Z,1.50
2018-01-06T01:13:07.779Z,1.47
2018-01-06T01:15:35.329Z,1.57
2018-01-06T01:18:03.601Z,1.83
2018-01-06T01:20:31.132Z,1.70
2018-01-06T01:22:58.654Z,1.53
2018-01-06T01:25:26.170Z,1.50
2018-01-06T01:27:54.485Z,1.83
2018-01-06T01:30:21.996Z,1.57
2018-01-06T01:32:49.548Z,1.50
2018-01-06T01:35:17.052Z,1.43
2018-01-06T01:37:44.596Z,1.30
2018-01-06T01:40:12.112Z,1.70
2018-01-06T01:42:39.630Z,1.53
2018-01-06T01:45:07.153Z,1.50
2018-01-06T01:47:35.485Z,1.57
2018-01-06T01:50:03.055Z,1.60
2018-01-06T01:52:30.567Z,1.47
2018-01-06T01:54:58.064Z,1.33
2018-01-06T01:57:25.586Z,1.50
2018-01-06T01:59:53.094Z,1.57
2018-01-06T02:02:20.601Z,1.20
2018-01-06T02:04:48.119Z,1.20
2018-01-06T02:07:15.650Z,1.27
2018-01-06T02:09:43.200Z,1.27
2018-01-06T02:12:10.732Z,1.20
2018-01-06T02:14:38.282Z,1.30
2018-01-06T02:17:06.559Z,1.20
2018-01-06T02:19:34.847Z,1.13
2018-01-06T02:22:02.363Z,1.40
2018-01-06T02:24:29.890Z,1.30
2018-01-06T02:26:57.509Z,1.53
2018-01-06T02:29:25.856Z,1.40
2018-01-06T02:31:53.374Z,1.40
2018-01-06T02:34:20.931Z,1.60
2018-01-06T02:36:48.444Z,1.63
2018-01-06T02:39:15.985Z,1.17
2018-01-06T02:41:43.537Z,1.07
2018-01-06T02:44:11.053Z,1.03
2018-01-06T02:46:38.576Z,1.10
2018-01-06T02:49:06.092Z,1.20
2018-01-06T02:51:33.614Z,1.30
2018-01-06T02:54:01.901Z,1.60
2018-01-06T02:56:29.407Z,2.07
2018-01-06T02:58:56.992Z,1.53
2018-01-06T03:01:24.483Z,1.67
2018-01-06T03:03:52.025Z,1.50
2018-01-06T03:06:20.353Z,1.50
2018-01-06T03:08:47.850Z,1.67
2018-01-06T03:11:15.442Z,1.60
2018-01-06T03:13:43.699Z,1.40
2018-01-06T03:16:12.113Z,1.57
2018-01-06T03:18:39.659Z,1.40
2018-01-06T03:21:07.173Z,1.43
2018-01-06T03:23:34.669Z,1.50
2018-01-06T03:26:02.208Z,1.57
2018-01-06T03:28:29.714Z,1.17
2018-01-06T03:30:57.248Z,1.63
2018-01-06T03:33:24.796Z,1.43
2018-01-06T03:35:52.303Z,1.30
2018-01-06T03:38:19.820Z,1.50
2018-01-06T03:40:47.335Z,1.00
2018-01-06T03:43:14.882Z,1.47
2018-01-06T03:45:42.420Z,1.40
2018-01-06T03:48:09.919Z,1.37
2018-01-06T03:50:37.459Z,1.40
2018-01-06T03:53:04.959Z,1.47
2018-01-06T03:55:33.228Z,1.50
2018-01-06T03:58:01.528Z,2.00
2018-01-06T04:00:29.041Z,1.50
2018-01-06T04:02:56.624Z,1.53
2018-01-06T04:05:24.131Z,1.17
2018-01-06T04:07:51.656Z,1.60
2018-01-06T04:10:19.176Z,1.60
2018-01-06T04:12:46.692Z,1.47
2018-01-06T04:15:14.212Z,1.53
2018-01-06T04:17:42.490Z,1.70
2018-01-06T04:20:10.812Z,1.73
2018-01-06T04:22:38.312Z,1.70
2018-01-06T04:25:05.835Z,1.70
2018-01-06T04:27:33.391Z,1.83
2018-01-06T04:30:00.916Z,1.93
2018-01-06T04:32:28.417Z,1.27
2018-01-06T04:34:55.964Z,1.77
2018-01-06T04:37:23.477Z,1.77
2018-01-06T04:39:51.771Z,1.63
2018-01-06T04:42:19.304Z,1.43
2018-01-06T04:44:47.578Z,1.70
2018-01-06T04:47:15.094Z,1.40
2018-01-06T04:49:42.630Z,1.60
2018-01-06T04:52:10.135Z,1.67
2018-01-06T04:54:37.649Z,2.30
2018-01-06T04:57:05.191Z,1.80
2018-01-06T04:59:32.719Z,2.00
2018-01-06T05:02:00.229Z,2.47
2018-01-06T05:04:27.823Z,2.20
2018-01-06T05:06:55.367Z,2.30
2018-01-06T05:09:22.952Z,2.03
2018-01-06T05:11:50.450Z,2.20
2018-01-06T05:14:17.988Z,2.17
2018-01-06T05:16:45.520Z,2.10
2018-01-06T05:19:13.024Z,2.30
2018-01-06T05:21:41.323Z,2.33
2018-01-06T05:24:08.856Z,1.40
2018-01-06T05:26:37.130Z,1.80
2018-01-06T05:29:04.661Z,1.50
2018-01-06T05:31:32.165Z,1.93
2018-01-06T05:33:59.708Z,1.73
2018-01-06T05:36:27.999Z,2.13
2018-01-06T05:38:55.619Z,1.60
2018-01-06T05:41:23.135Z,1.40
2018-01-06T05:43:50.643Z,1.27
2018-01-06T05:46:18.182Z,1.30
2018-01-06T05:48:45.699Z,1.50
2018-01-06T05:51:13.356Z,1.77
2018-01-06T05:53:40.877Z,1.40
2018-01-06T05:56:08.503Z,1.40
2018-01-06T05:58:36.020Z,1.30
2018-01-06T06:01:03.523Z,1.57
2018-01-06T06:03:31.073Z,1.57
2018-01-06T06:05:58.591Z,1.37
2018-01-06T06:08:26.107Z,1.80
2018-01-06T06:10:53.652Z,1.50
2018-01-06T06:13:21.159Z,1.20
2018-01-06T06:15:48.688Z,1.30
2018-01-06T06:18:16.211Z,1.43
2018-01-06T06:20:43.716Z,1.20
2018-01-06T06:23:11.387Z,1.80
2018-01-06T06:25:38.888Z,1.23
2018-01-06T06:28:06.449Z,1.10
2018-01-06T06:30:33.980Z,1.30
2018-01-06T06:33:01.475Z,1.27
2018-01-06T06:35:28.998Z,1.30
2018-01-06T06:37:57.307Z,1.30
2018-01-06T06:40:24.823Z,1.10
2018-01-06T06:42:53.118Z,1.50
2018-01-06T06:45:20.633Z,1.60
2018-01-06T06:47:48.178Z,1.90
2018-01-06T06:50:15.684Z,2.40
2018-01-06T06:52:43.950Z,2.37
2018-01-06T06:55:12.252Z,1.70
2018-01-06T06:57:39.762Z,1.80
2018-01-06T07:00:07.291Z,1.60
2018-01-06T07:02:35.574Z,1.87
2018-01-06T07:05:03.109Z,1.57
2018-01-06T07:07:30.670Z,1.57
2018-01-06T07:09:58.178Z,1.70
2018-01-06T07:12:25.727Z,1.60
2018-01-06T07:14:53.238Z,1.80
2018-01-06T07:17:20.813Z,1.80
2018-01-06T07:19:48.326Z,1.93
2018-01-06T07:22:16.657Z,1.70
2018-01-06T07:24:44.161Z,1.57
2018-01-06T07:27:12.437Z,1.60
2018-01-06T07:29:39.992Z,2.00
2018-01-06T07:32:07.487Z,2.03
2018-01-06T07:34:35.077Z,1.70
2018-01-06T07:37:02.597Z,1.70
2018-01-06T07:39:30.131Z,1.97
2018-01-06T07:41:57.647Z,1.60
2018-01-06T07:44:25.224Z,1.80
2018-01-06T07:46:52.741Z,2.00
2018-01-06T07:49:20.258Z,2.60
2018-01-06T07:51:47.791Z,2.80
2018-01-06T07:54:15.317Z,2.37
2018-01-06T07:56:42.886Z,2.70
2018-01-06T07:59:10.382Z,2.50
2018-01-06T08:01:37.904Z,2.20
2018-01-06T08:04:05.448Z,2.50
2018-01-06T08:06:32.944Z,2.00
2018-01-06T08:09:00.487Z,1.90
2018-01-06T08:11:28.044Z,2.17
2018-01-06T08:13:55.575Z,2.23
2018-01-06T08:16:23.123Z,2.07
2018-01-06T08:18:51.400Z,2.13
2018-01-06T08:21:19.702Z,2.57
2018-01-06T08:23:47.218Z,4.10
2018-01-06T08:26:15.521Z,7.23
2018-01-06T08:28:43.037Z,7.83
2018-01-06T08:31:10.529Z,4.20
2018-01-06T08:33:38.108Z,3.03
2018-01-06T08:36:05.651Z,3.00
2018-01-06T08:38:33.157Z,3.20
2018-01-06T08:41:00.725Z,4.20
2018-01-06T08:43:28.216Z,3.60
2018-01-06T08:45:56.537Z,2.50
2018-01-06T08:48:24.032Z,2.80
2018-01-06T08:50:51.562Z,2.20
2018-01-06T08:53:19.094Z,2.20
2018-01-06T08:55:46.600Z,1.90
2018-01-06T08:58:14.142Z,1.97
2018-01-06T09:00:41.721Z,2.20
2018-01-06T09:03:09.259Z,2.30
2018-01-06T09:05:36.828Z,2.17
2018-01-06T09:08:04.347Z,2.20
2018-01-06T09:10:31.901Z,2.37
2018-01-06T09:12:59.432Z,2.20
2018-01-06T09:15:27.228Z,2.47
2018-01-06T09:17:54.766Z,2.37
2018-01-06T09:20:23.057Z,2.87
2018-01-06T09:22:50.584Z,2.50
2018-01-06T09:25:18.113Z,2.97
2018-01-06T09:27:45.658Z,3.27
2018-01-06T09:30:13.177Z,2.60
2018-01-06T09:32:40.712Z,3.13
2018-01-06T09:35:08.265Z,3.70
2018-01-06T09:37:35.803Z,3.20
2018-01-06T09:40:03.355Z,3.30
2018-01-06T09:42:30.884Z,3.53
2018-01-06T09:44:59.158Z,3.53
2018-01-06T09:47:26.700Z,3.23
2018-01-06T09:49:54.996Z,3.23
2018-01-06T09:52:22.529Z,3.20
2018-01-06T09:54:50.051Z,3.73
2018-01-06T09:57:17.587Z,3.33
2018-01-06T09:59:45.151Z,3.20
2018-01-06T10:02:12.663Z,3.40
2018-01-06T10:04:40.985Z,3.13
2018-01-06T10:07:08.490Z,3.30
2018-01-06T10:09:36.043Z,3.10
2018-01-06T10:12:03.557Z,3.97
2018-01-06T10:14:31.124Z,4.60
2018-01-06T10:16:58.663Z,5.60
2018-01-06T10:19:26.238Z,5.53
2018-01-06T10:21:53.792Z,5.73
2018-01-06T10:24:21.303Z,6.60
2018-01-06T10:26:48.808Z,6.10
2018-01-06T10:29:16.336Z,6.97
2018-01-06T10:31:44.627Z,7.80
2018-01-06T10:34:12.938Z,7.07
2018-01-06T10:36:40.458Z,7.27
2018-01-06T10:39:08.780Z,6.53
2018-01-06T10:41:36.287Z,6.63
2018-01-06T10:44:04.567Z,6.13
2018-01-06T10:46:32.867Z,5.67
2018-01-06T10:49:00.393Z,5.70
2018-01-06T10:51:28.893Z,6.30
2018-01-06T10:53:57.197Z,6.33
2018-01-06T10:56:24.755Z,5.60
2018-01-06T10:58:52.278Z,6.07
2018-01-06T11:01:25.592Z,5.73
2018-01-06T11:03:53.127Z,5.47
2018-01-06T11:06:21.447Z,6.83
2018-01-06T11:08:48.966Z,6.40
2018-01-06T11:11:16.510Z,5.57
2018-01-06T11:13:44.071Z,5.60
2018-01-06T11:16:11.601Z,6.10
2018-01-06T11:18:39.136Z,6.10
2018-01-06T11:21:06.710Z,6.00
2018-01-06T11:23:34.272Z,5.60
2018-01-06T11:26:01.770Z,5.87
2018-01-06T11:28:29.303Z,6.20
2018-01-06T11:30:56.870Z,5.20
2018-01-06T11:33:24.465Z,5.83
2018-01-06T11:35:52.031Z,8.63
2018-01-06T11:38:19.554Z,10.90
2018-01-06T11:40:47.104Z,7.57
2018-01-06T11:43:14.703Z,5.40
2018-01-06T11:45:42.246Z,4.27
2018-01-06T11:48:10.528Z,4.10
2018-01-06T11:50:38.803Z,4.80
2018-01-06T11:53:07.127Z,4.93
2018-01-06T11:55:34.652Z,5.10
2018-01-06T11:58:02.181Z,5.10
2018-01-06T12:00:29.732Z,5.60
2018-01-06T12:02:57.260Z,5.33
2018-01-06T12:05:24.834Z,6.50
2018-01-06T12:07:52.369Z,5.93
2018-01-06T12:10:19.906Z,5.10
2018-01-06T12:12:47.440Z,5.03
2018-01-06T12:15:14.952Z,5.20
2018-01-06T12:17:42.507Z,5.10
2018-01-06T12:20:10.030Z,5.60
2018-01-06T12:22:38.370Z,5.60
2018-01-06T12:25:05.903Z,5.17
2018-01-06T12:27:33.444Z,5.33
2018-01-06T12:30:01.065Z,5.23
2018-01-06T12:32:29.391Z,5.73
2018-01-06T12:34:56.975Z,5.97
2018-01-06T12:37:24.486Z,6.23
2018-01-06T12:39:52.056Z,6.00
2018-01-06T12:42:19.635Z,5.53
2018-01-06T12:44:47.154Z,5.70
2018-01-06T12:47:15.484Z,5.40
2018-01-06T12:49:42.994Z,5.57
2018-01-06T12:52:10.559Z,5.23
2018-01-06T12:54:38.844Z,5.23
2018-01-06T12:57:06.385Z,5.10
2018-01-06T12:59:34.720Z,5.00
2018-01-06T13:02:02.226Z,5.10
2018-01-06T13:04:29.848Z,5.10
2018-01-06T13:06:57.385Z,4.63
2018-01-06T13:09:24.917Z,5.30
2018-01-06T13:11:52.476Z,5.80
2018-01-06T13:14:19.990Z,6.47
2018-01-06T13:16:47.537Z,5.90
2018-01-06T13:19:15.138Z,6.30
2018-01-06T13:21:43.426Z,6.87
2018-01-06T13:24:10.997Z,7.67
2018-01-06T13:26:38.530Z,7.43
2018-01-06T13:29:06.087Z,7.80
2018-01-06T13:31:33.610Z,8.50
2018-01-06T13:34:01.209Z,9.47
2018-01-06T13:36:29.550Z,9.50
2018-01-06T13:38:57.079Z,8.80
2018-01-06T13:41:25.362Z,9.53
2018-01-06T13:43:52.960Z,9.70
2018-01-06T13:46:20.472Z,11.13
2018-01-06T13:48:48.037Z,11.10
2018-01-06T13:51:15.555Z,11.30
2018-01-06T13:53:43.859Z,11.70
2018-01-06T13:56:11.387Z,12.67
2018-01-06T13:58:39.690Z,13.30
2018-01-06T14:01:07.231Z,13.97
2018-01-06T14:03:35.681Z,15.10
2018-01-06T14:06:03.264Z,17.30
2018-01-06T14:08:30.786Z,18.90
2018-01-06T14:11:01.838Z,16.90
2018-01-06T14:13:29.412Z,16.70
2018-01-06T14:15:56.974Z,15.70
2018-01-06T14:18:24.583Z,15.47
2018-01-06T14:20:52.881Z,15.23
2018-01-06T14:23:20.449Z,14.20
2018-01-06T14:25:47.967Z,15.90
2018-01-06T14:28:15.524Z,14.73
2018-01-06T14:30:43.086Z,14.50
2018-01-06T14:33:10.605Z,14.03
2018-01-06T14:35:38.160Z,13.77
2018-01-06T14:38:05.692Z,13.17
2018-01-06T14:40:33.283Z,9.67
2018-01-06T14:43:00.792Z,9.67
2018-01-06T14:45:28.339Z,11.50
2018-01-06T14:47:55.862Z,9.03
2018-01-06T14:50:23.396Z,10.27
2018-01-06T14:52:50.919Z,10.10
2018-01-06T14:55:18.460Z,7.10
2018-01-06T14:57:46.782Z,7.20
2018-01-06T15:00:15.267Z,6.20
2018-01-06T15:02:42.781Z,6.17
2018-01-06T15:05:10.317Z,6.53
2018-01-06T15:07:38.630Z,6.87
2018-01-06T15:10:06.156Z,6.63
2018-01-06T15:12:34.488Z,5.60
2018-01-06T15:15:02.005Z,5.23
2018-01-06T15:17:30.306Z,5.10
2018-01-06T15:19:57.863Z,5.57
2018-01-06T15:22:25.380Z,5.67
2018-01-06T15:24:52.925Z,4.93
2018-01-06T15:27:20.472Z,6.90
2018-01-06T15:29:48.019Z,5.97
2018-01-06T15:32:15.544Z,5.53
2018-01-06T15:34:43.087Z,5.87
2018-01-06T15:37:10.645Z,5.63
2018-01-06T15:39:38.988Z,5.50
2018-01-06T15:42:06.524Z,5.60
2018-01-06T15:44:34.044Z,5.47
2018-01-06T15:47:02.326Z,6.13
2018-01-06T15:49:29.885Z,5.80
2018-01-06T15:51:57.418Z,7.30
2018-01-06T15:54:24.929Z,5.60
2018-01-06T15:56:52.464Z,6.20
2018-01-06T15:59:20.761Z,5.83
2018-01-06T16:01:48.302Z,6.10
2018-01-06T16:04:15.818Z,5.90
2018-01-06T16:06:44.116Z,6.60
2018-01-06T16:09:11.662Z,6.23
2018-01-06T16:11:39.283Z,6.70
2018-01-06T16:14:06.833Z,6.93
2018-01-06T16:16:34.365Z,8.53
2018-01-06T16:19:02.641Z,9.87
2018-01-06T16:21:30.959Z,10.77
2018-01-06T16:23:58.483Z,14.00
2018-01-06T16:26:26.028Z,13.50
2018-01-06T16:28:53.576Z,13.87
2018-01-06T16:31:21.096Z,13.90
2018-01-06T16:33:48.684Z,14.10
2018-01-06T16:36:16.204Z,13.70
2018-01-06T16:38:43.756Z,13.20
2018-01-06T16:41:11.360Z,13.67
2018-01-06T16:43:39.611Z,16.90
2018-01-06T16:46:07.194Z,16.10
2018-01-06T16:48:34.767Z,16.77
2018-01-06T16:51:02.305Z,16.23
2018-01-06T16:53:29.841Z,15.67
2018-01-06T16:55:57.396Z,15.60
2018-01-06T16:58:24.964Z,15.37
2018-01-06T17:00:52.508Z,14.70
2018-01-06T17:03:20.061Z,14.47
2018-01-06T17:05:47.601Z,14.60
2018-01-06T17:08:15.895Z,14.47
2018-01-06T17:10:43.432Z,14.67
2018-01-06T17:13:11.723Z,14.03
2018-01-06T17:15:39.275Z,13.93
2018-01-06T17:18:07.578Z,15.10
2018-01-06T17:20:35.136Z,15.30
2018-01-06T17:23:02.702Z,15.50
2018-01-06T17:25:30.227Z,15.80
2018-01-06T17:27:58.498Z,15.70
2018-01-06T17:30:26.829Z,14.53
2018-01-06T17:32:54.357Z,14.63
2018-01-06T17:35:21.913Z,15.53
2018-01-06T17:37:49.436Z,15.77
2018-01-06T17:40:17.015Z,15.40
2018-01-06T17:42:44.619Z,19.27
2018-01-06T17:45:12.920Z,18.03
2018-01-06T17:47:40.603Z,18.27
2018-01-06T17:50:08.128Z,18.67
2018-01-06T17:52:35.691Z,17.23
2018-01-06T17:55:03.183Z,18.13
2018-01-06T17:57:31.548Z,17.90
2018-01-06T17:59:59.188Z,22.30
2018-01-06T18:02:26.808Z,20.93
2018-01-06T18:04:54.364Z,22.10
2018-01-06T18:07:21.863Z,22.10
2018-01-06T18:09:49.674Z,21.83
2018-01-06T18:12:18.490Z,24.00
2018-01-06T18:14:46.143Z,22.87
2018-01-06T18:17:13.748Z,20.30
2018-01-06T18:19:41.298Z,28.10
2018-01-06T18:22:09.493Z,21.97
2018-01-06T18:24:37.074Z,23.00
2018-01-06T18:27:05.746Z,23.80
2018-01-06T18:29:33.316Z,23.30
2018-01-06T18:32:01.194Z,25.70
2018-01-06T18:34:29.952Z,26.33
2018-01-06T18:36:57.612Z,32.47
2018-01-06T18:39:25.175Z,27.93
2018-01-06T18:41:52.724Z,24.20
2018-01-06T18:44:20.784Z,22.23
2018-01-06T18:46:48.405Z,20.45
2018-01-06T18:49:16.057Z,23.60
2018-01-06T18:51:43.557Z,23.13
2018-01-06T18:54:11.296Z,22.90
2018-01-06T18:56:39.307Z,21.17
2018-01-06T18:59:07.667Z,22.47
2018-01-06T19:01:35.242Z,23.77
2018-01-06T19:04:02.786Z,24.97
2018-01-06T19:06:30.771Z,25.87
2018-01-06T19:08:58.304Z,22.80
2018-01-06T19:11:26.395Z,23.70
2018-01-06T19:13:54.739Z,24.17
2018-01-06T19:16:23.211Z,22.30
2018-01-06T19:18:50.857Z,23.83
2018-01-06T19:21:19.218Z,24.03
2018-01-06T19:23:46.858Z,24.33
2018-01-06T19:26:14.434Z,24.83
2018-01-06T19:28:41.988Z,25.50
2018-01-06T19:31:09.783Z,25.00
2018-01-06T19:33:37.608Z,25.60
2018-01-06T19:36:05.228Z,25.30
2018-01-06T19:38:32.771Z,25.03
2018-01-06T19:41:01.185Z,25.50
2018-01-06T19:43:29.201Z,26.07
2018-01-06T19:45:56.788Z,26.07
2018-01-06T19:48:24.404Z,23.70
2018-01-06T19:50:51.949Z,24.90
2018-01-06T19:53:19.673Z,25.50
2018-01-06T19:55:47.460Z,23.77
2018-01-06T19:58:15.028Z,25.97
2018-01-06T20:00:42.582Z,25.30
2018-01-06T20:03:10.110Z,25.63
2018-01-06T20:05:37.750Z,23.40
2018-01-06T20:08:06.089Z,26.30
2018-01-06T20:10:33.665Z,26.43
2018-01-06T20:13:01.200Z,28.97
2018-01-06T20:15:28.862Z,30.30
2018-01-06T20:17:56.420Z,32.00
2018-01-06T20:20:23.980Z,32.60
2018-01-06T20:22:51.489Z,31.47
2018-01-06T20:25:19.924Z,32.83
2018-01-06T20:27:47.495Z,34.17
2018-01-06T20:30:15.287Z,32.00
2018-01-06T20:32:42.811Z,29.97
2018-01-06T20:35:10.594Z,37.80
2018-01-06T20:37:38.552Z,35.10
2018-01-06T20:40:06.083Z,32.70
2018-01-06T20:42:33.587Z,28.83
2018-01-06T20:45:01.242Z,26.43
2018-01-06T20:47:29.145Z,26.17
2018-01-06T20:49:57.559Z,29.50
2018-01-06T20:52:25.308Z,30.90
2018-01-06T20:54:52.907Z,32.20
2018-01-06T20:57:20.443Z,30.77
2018-01-06T20:59:47.968Z,29.90
2018-01-06T21:02:16.694Z,28.83
2018-01-06T21:04:44.248Z,32.30
2018-01-06T21:07:11.788Z,32.97
2018-01-06T21:09:39.704Z,32.13
2018-01-06T21:12:07.460Z,30.50
2018-01-06T21:14:35.042Z,28.10
2018-01-06T21:17:02.558Z,28.97
2018-01-06T21:19:30.367Z,27.90
2018-01-06T21:21:58.185Z,27.57
2018-01-06T21:24:25.743Z,26.50
2018-01-06T21:26:53.282Z,23.67
2018-01-06T21:29:20.994Z,24.20
2018-01-06T21:31:49.195Z,24.83
2018-01-06T21:34:17.643Z,24.97
2018-01-06T21:36:45.254Z,22.17
2018-01-06T21:39:12.776Z,22.15
2018-01-06T21:41:40.325Z,24.30
2018-01-06T21:44:08.171Z,22.57
2018-01-06T21:46:36.164Z,23.90
2018-01-06T21:49:03.800Z,25.90
2018-01-06T21:51:31.352Z,29.30
2018-01-06T21:53:59.040Z,34.27
2018-01-06T21:56:26.568Z,32.83
2018-01-06T21:58:54.119Z,31.67
2018-01-06T22:01:21.681Z,25.77
2018-01-06T22:03:49.366Z,25.50
2018-01-06T22:06:16.880Z,24.17
2018-01-06T22:08:45.179Z,24.03
2018-01-06T22:11:12.759Z,25.07
2018-01-06T22:13:40.390Z,23.53
2018-01-06T22:16:07.966Z,24.73
2018-01-06T22:18:35.645Z,24.00
2018-01-06T22:21:03.232Z,24.17
2018-01-06T22:23:30.768Z,25.53
2018-01-06T22:25:58.318Z,27.37
2018-01-06T22:28:25.855Z,26.03
2018-01-06T22:30:53.360Z,24.40
2018-01-06T22:33:21.043Z,25.43
2018-01-06T22:35:48.591Z,25.33
2018-01-06T22:38:17.583Z,26.60
2018-01-06T22:40:45.331Z,25.00
2018-01-06T22:43:12.869Z,25.40
2018-01-06T22:45:40.404Z,29.47
2018-01-06T22:48:07.983Z,26.70
2018-01-06T22:50:35.537Z,25.50
2018-01-06T22:53:03.866Z,25.70
2018-01-06T22:55:31.398Z,25.17
2018-01-06T22:57:58.921Z,25.77
2018-01-06T23:00:26.495Z,26.00
2018-01-06T23:02:54.042Z,28.80
2018-01-06T23:05:23.292Z,27.10
2018-01-06T23:07:50.849Z,27.20
2018-01-06T23:10:18.416Z,25.73
2018-01-06T23:12:45.943Z,26.03
2018-01-06T23:15:13.544Z,29.30
2018-01-06T23:17:41.331Z,27.10
2018-01-06T23:20:09.623Z,26.37
2018-01-06T23:22:38.936Z,25.20
2018-01-06T23:28:17.718Z,26.23
2018-01-06T23:31:01.593Z,27.03
2018-01-06T23:39:02.685Z,27.07
2018-01-06T23:41:32.225Z,28.17
2018-01-06T23:46:43.205Z,28.80
2018-01-06T23:49:10.732Z,27.70
2018-01-06T23:51:38.255Z,27.97
2018-01-06T23:54:05.810Z,30.10
2018-01-06T23:56:35.087Z,31.60
2018-01-06T23:59:02.604Z,28.87
